createdAt,value
2018-10-09T00:02:12.208Z,17.20
2018-10-09T00:04:40.474Z,17.20
2018-10-09T00:07:08.792Z,17.20
2018-10-09T00:09:37.069Z,17.10
2018-10-09T00:12:05.372Z,17.10
2018-10-09T00:14:33.642Z,17.10
2018-10-09T00:17:01.904Z,17.10
2018-10-09T00:19:30.165Z,17.10
2018-10-09T00:21:58.439Z,17.10
2018-10-09T00:24:26.721Z,17.00
2018-10-09T00:26:55.066Z,17.00
2018-10-09T00:29:23.345Z,17.00
2018-10-09T00:31:51.599Z,17.00
2018-10-09T00:34:19.858Z,16.90
2018-10-09T00:36:48.102Z,16.90
2018-10-09T00:39:16.378Z,16.90
2018-10-09T00:41:44.670Z,16.90
2018-10-09T00:44:12.889Z,16.90
2018-10-09T00:46:41.159Z,16.90
2018-10-09T00:49:09.481Z,16.80
2018-10-09T00:51:37.734Z,16.80
2018-10-09T00:54:06.037Z,16.80
2018-10-09T00:56:34.354Z,16.80
2018-10-09T00:59:02.663Z,16.70
2018-10-09T01:01:30.958Z,16.70
2018-10-09T01:03:59.233Z,16.70
2018-10-09T01:06:27.517Z,16.70
2018-10-09T01:08:55.819Z,16.70
2018-10-09T01:11:24.042Z,16.60
2018-10-09T01:13:52.314Z,16.60
2018-10-09T01:16:20.709Z,16.60
2018-10-09T01:18:48.965Z,16.60
2018-10-09T01:21:17.219Z,16.60
2018-10-09T01:23:45.511Z,16.50
2018-10-09T01:26:13.800Z,16.50
2018-10-09T01:28:42.063Z,16.50
2018-10-09T01:31:10.310Z,16.50
2018-10-09T01:33:38.575Z,16.50
2018-10-09T01:36:07.173Z,16.40
2018-10-09T01:38:35.431Z,16.40
2018-10-09T01:41:03.763Z,16.40
2018-10-09T01:43:32.110Z,16.40
2018-10-09T01:46:00.346Z,16.40
2018-10-09T01:48:28.632Z,16.40
2018-10-09T01:50:56.885Z,16.30
2018-10-09T01:53:25.187Z,16.30
2018-10-09T01:55:53.446Z,16.30
2018-10-09T01:58:21.694Z,16.30
2018-10-09T02:00:49.955Z,16.30
2018-10-09T02:03:18.280Z,16.30
2018-10-09T02:05:46.599Z,16.20
2018-10-09T02:08:14.844Z,16.20
2018-10-09T02:10:43.113Z,16.20
2018-10-09T02:13:11.373Z,16.20
2018-10-09T02:15:39.657Z,16.20
2018-10-09T02:18:07.966Z,16.20
2018-10-09T02:20:36.206Z,16.10
2018-10-09T02:23:04.453Z,16.10
2018-10-09T02:25:32.728Z,16.10
2018-10-09T02:28:00.977Z,16.10
2018-10-09T02:30:29.293Z,16.10
2018-10-09T02:32:57.557Z,16.10
2018-10-09T02:35:25.879Z,16.10
2018-10-09T02:37:54.159Z,16.00
2018-10-09T02:40:22.441Z,16.00
2018-10-09T02:42:50.717Z,16.00
2018-10-09T02:45:19.022Z,16.00
2018-10-09T02:47:47.319Z,16.00
2018-10-09T02:50:15.613Z,16.00
2018-10-09T02:52:43.874Z,16.00
2018-10-09T02:55:12.172Z,15.90
2018-10-09T02:57:40.425Z,15.90
2018-10-09T03:00:08.856Z,15.90
2018-10-09T03:02:37.167Z,15.90
2018-10-09T03:05:05.462Z,15.90
2018-10-09T03:07:33.717Z,15.90
2018-10-09T03:10:01.973Z,15.90
2018-10-09T03:12:30.219Z,15.90
2018-10-09T03:14:58.506Z,15.90
2018-10-09T03:17:26.765Z,15.80
2018-10-09T03:19:55.052Z,15.80
2018-10-09T03:22:23.337Z,15.80
2018-10-09T03:24:51.605Z,15.80
2018-10-09T03:27:19.887Z,15.80
2018-10-09T03:29:48.157Z,15.80
2018-10-09T03:32:16.421Z,15.80
2018-10-09T03:34:44.665Z,15.80
2018-10-09T03:37:12.925Z,15.80
2018-10-09T03:39:41.169Z,15.80
2018-10-09T03:42:09.444Z,15.70
2018-10-09T03:44:37.721Z,15.70
2018-10-09T03:47:06.306Z,15.70
2018-10-09T03:49:34.578Z,15.70
2018-10-09T03:52:02.866Z,15.70
2018-10-09T03:54:31.137Z,15.70
2018-10-09T03:56:59.443Z,15.70
2018-10-09T03:59:27.752Z,15.70
2018-10-09T04:01:55.998Z,15.70
2018-10-09T04:04:24.275Z,15.60
2018-10-09T04:06:52.534Z,15.60
2018-10-09T04:09:20.870Z,15.60
2018-10-09T04:11:49.097Z,15.60
2018-10-09T04:14:17.366Z,15.60
2018-10-09T04:16:45.593Z,15.60
2018-10-09T04:19:13.904Z,15.60
2018-10-09T04:21:42.124Z,15.50
2018-10-09T04:24:10.406Z,15.50
2018-10-09T04:26:38.651Z,15.60
2018-10-09T04:29:06.921Z,15.60
2018-10-09T04:31:35.185Z,15.50
2018-10-09T04:34:03.467Z,15.50
2018-10-09T04:36:31.735Z,15.50
2018-10-09T04:39:00.011Z,15.50
2018-10-09T04:41:28.318Z,15.50
2018-10-09T04:43:56.566Z,15.50
2018-10-09T04:46:24.827Z,15.50
2018-10-09T04:48:53.101Z,15.50
2018-10-09T04:51:21.356Z,15.50
2018-10-09T04:53:49.663Z,15.50
2018-10-09T04:56:17.932Z,15.50
2018-10-09T04:58:46.193Z,15.40
2018-10-09T05:01:14.481Z,15.40
2018-10-09T05:03:42.729Z,15.40
2018-10-09T05:06:11.021Z,15.40
2018-10-09T05:08:39.261Z,15.40
2018-10-09T05:11:08.582Z,15.40
2018-10-09T05:13:37.114Z,15.40
2018-10-09T05:16:05.645Z,15.40
2018-10-09T05:18:33.968Z,15.30
2018-10-09T05:21:02.217Z,15.30
2018-10-09T05:23:30.490Z,15.40
2018-10-09T05:25:58.847Z,15.40
2018-10-09T05:28:27.093Z,15.30
2018-10-09T05:30:55.423Z,15.30
2018-10-09T05:33:23.653Z,15.30
2018-10-09T05:35:51.970Z,15.30
2018-10-09T05:38:20.253Z,15.30
2018-10-09T05:40:48.543Z,15.30
2018-10-09T05:43:16.792Z,15.30
2018-10-09T05:45:45.101Z,15.30
2018-10-09T05:48:13.378Z,15.30
2018-10-09T05:50:41.641Z,15.30
2018-10-09T05:53:09.925Z,15.20
2018-10-09T05:55:38.215Z,15.20
2018-10-09T05:58:06.661Z,15.20
2018-10-09T06:00:34.918Z,15.20
2018-10-09T06:03:03.197Z,15.20
2018-10-09T06:05:31.578Z,15.20
2018-10-09T06:07:59.998Z,15.20
2018-10-09T06:10:28.271Z,14.90
2018-10-09T06:12:56.528Z,14.70
2018-10-09T06:15:24.846Z,14.70
2018-10-09T06:17:53.077Z,14.70
2018-10-09T06:20:21.360Z,14.80
2018-10-09T06:22:49.677Z,14.80
2018-10-09T06:25:17.981Z,14.80
2018-10-09T06:27:46.303Z,14.90
2018-10-09T06:30:14.561Z,14.90
2018-10-09T06:32:42.842Z,15.00
2018-10-09T06:35:11.122Z,15.00
2018-10-09T06:37:39.399Z,15.00
2018-10-09T06:40:07.709Z,15.00
2018-10-09T06:42:35.991Z,15.00
2018-10-09T06:45:04.309Z,15.00
2018-10-09T06:47:32.659Z,15.10
2018-10-09T06:50:00.897Z,15.10
2018-10-09T06:52:29.235Z,15.20
2018-10-09T06:54:57.546Z,15.20
2018-10-09T06:57:26.165Z,15.30
2018-10-09T06:59:54.437Z,15.30
2018-10-09T07:02:22.691Z,15.30
2018-10-09T07:04:50.971Z,15.30
2018-10-09T07:07:19.217Z,15.30
2018-10-09T07:09:47.522Z,15.30
2018-10-09T07:12:15.786Z,15.30
2018-10-09T07:14:44.167Z,15.30
2018-10-09T07:17:12.658Z,15.30
2018-10-09T07:19:40.946Z,15.40
2018-10-09T07:22:09.210Z,15.30
2018-10-09T07:24:37.514Z,15.30
2018-10-09T07:27:05.890Z,15.30
2018-10-09T07:29:34.166Z,15.30
2018-10-09T07:32:02.486Z,15.40
2018-10-09T07:34:30.760Z,15.40
2018-10-09T07:36:59.018Z,15.40
2018-10-09T07:39:27.293Z,15.40
2018-10-09T07:41:55.575Z,15.40
2018-10-09T07:44:23.899Z,15.40
2018-10-09T07:46:52.105Z,15.50
2018-10-09T07:49:20.368Z,15.50
2018-10-09T07:51:48.713Z,15.50
2018-10-09T07:54:16.952Z,15.50
2018-10-09T07:56:45.222Z,15.50
2018-10-09T07:59:13.486Z,15.50
2018-10-09T08:01:41.765Z,15.50
2018-10-09T08:04:10.043Z,15.50
2018-10-09T08:06:38.310Z,15.50
2018-10-09T08:09:08.748Z,15.60
2018-10-09T08:11:37.009Z,15.50
2018-10-09T08:14:05.562Z,15.60
2018-10-09T08:16:33.851Z,15.60
2018-10-09T08:19:02.381Z,15.60
2018-10-09T08:21:30.647Z,15.60
2018-10-09T08:23:58.930Z,15.70
2018-10-09T08:26:27.168Z,15.70
2018-10-09T08:28:55.442Z,15.70
2018-10-09T08:31:23.690Z,15.70
2018-10-09T08:33:52.086Z,15.80
2018-10-09T08:36:20.355Z,15.80
2018-10-09T08:38:48.623Z,15.80
2018-10-09T08:41:16.905Z,15.80
2018-10-09T08:43:45.169Z,15.80
2018-10-09T08:46:13.476Z,15.90
2018-10-09T08:48:42.378Z,15.90
2018-10-09T08:51:10.637Z,15.90
2018-10-09T08:53:38.914Z,15.90
2018-10-09T08:56:07.322Z,15.90
2018-10-09T08:58:35.622Z,16.00
2018-10-09T09:01:03.886Z,16.00
2018-10-09T09:03:32.227Z,16.10
2018-10-09T09:06:00.447Z,16.10
2018-10-09T09:08:28.901Z,16.10
2018-10-09T09:10:57.216Z,16.10
2018-10-09T09:13:25.536Z,16.10
2018-10-09T09:15:53.846Z,16.20
2018-10-09T09:18:22.122Z,16.20
2018-10-09T09:20:50.381Z,16.30
2018-10-09T09:23:18.621Z,16.30
2018-10-09T09:25:46.938Z,16.40
2018-10-09T09:28:15.208Z,16.40
2018-10-09T09:30:43.490Z,16.50
2018-10-09T09:33:11.794Z,16.60
2018-10-09T09:35:40.037Z,16.70
2018-10-09T09:38:08.304Z,16.80
2018-10-09T09:40:36.590Z,16.90
2018-10-09T09:43:04.871Z,17.10
2018-10-09T09:45:33.145Z,17.20
2018-10-09T09:48:01.449Z,17.30
2018-10-09T09:50:29.742Z,17.40
2018-10-09T09:52:58.516Z,17.50
2018-10-09T09:55:27.553Z,17.60
2018-10-09T09:57:55.887Z,17.70
2018-10-09T10:00:29.466Z,17.70
2018-10-09T10:02:57.746Z,17.70
2018-10-09T10:05:26.033Z,17.80
2018-10-09T10:07:54.329Z,17.90
2018-10-09T10:10:22.609Z,17.90
2018-10-09T10:12:50.890Z,18.00
2018-10-09T10:15:19.141Z,18.10
2018-10-09T10:17:47.425Z,18.10
2018-10-09T10:20:15.708Z,18.20
2018-10-09T10:22:43.972Z,18.30
2018-10-09T10:25:12.254Z,18.50
2018-10-09T10:27:40.593Z,18.60
2018-10-09T10:30:08.829Z,18.60
2018-10-09T10:32:37.110Z,18.70
2018-10-09T10:35:05.561Z,18.80
2018-10-09T10:37:33.955Z,18.90
2018-10-09T10:40:02.245Z,19.00
2018-10-09T10:42:30.526Z,19.10
2018-10-09T10:44:58.822Z,19.20
2018-10-09T10:47:27.090Z,19.30
2018-10-09T10:49:55.422Z,19.30
2018-10-09T10:52:23.730Z,19.40
2018-10-09T10:54:52.028Z,19.50
2018-10-09T10:57:20.262Z,19.60
2018-10-09T10:59:48.542Z,19.80
2018-10-09T11:02:16.833Z,19.80
2018-10-09T11:04:45.127Z,19.90
2018-10-09T11:07:13.447Z,20.00
2018-10-09T11:09:41.766Z,20.10
2018-10-09T11:12:10.094Z,20.20
2018-10-09T11:14:38.384Z,20.20
2018-10-09T11:17:06.654Z,20.30
2018-10-09T11:19:34.923Z,20.30
2018-10-09T11:22:03.202Z,20.40
2018-10-09T11:24:31.497Z,20.40
2018-10-09T11:26:59.737Z,20.40
2018-10-09T11:29:32.079Z,20.40
2018-10-09T11:32:00.365Z,20.40
2018-10-09T11:34:28.633Z,20.40
2018-10-09T11:36:56.938Z,20.40
2018-10-09T11:39:25.219Z,20.40
2018-10-09T11:41:53.515Z,20.40
2018-10-09T11:44:21.765Z,20.50
2018-10-09T11:46:50.132Z,20.50
2018-10-09T11:49:18.293Z,20.50
2018-10-09T11:51:46.605Z,20.50
2018-10-09T11:54:14.933Z,20.50
2018-10-09T11:56:43.305Z,20.50
2018-10-09T11:59:11.924Z,20.60
2018-10-09T12:01:40.119Z,20.60
2018-10-09T12:04:08.430Z,20.70
2018-10-09T12:06:36.702Z,20.70
2018-10-09T12:09:08.093Z,20.70
2018-10-09T12:11:36.391Z,20.80
2018-10-09T12:14:04.678Z,20.80
2018-10-09T12:16:33.050Z,20.90
2018-10-09T12:19:01.315Z,21.00
2018-10-09T12:21:29.641Z,21.00
2018-10-09T12:23:57.845Z,21.00
2018-10-09T12:26:26.110Z,21.00
2018-10-09T12:28:54.391Z,21.10
2018-10-09T12:31:22.658Z,21.20
2018-10-09T12:33:50.995Z,21.20
2018-10-09T12:36:19.278Z,21.30
2018-10-09T12:38:47.605Z,21.40
2018-10-09T12:41:15.969Z,21.40
2018-10-09T12:43:44.352Z,21.40
2018-10-09T12:46:12.566Z,21.40
2018-10-09T12:48:40.861Z,21.50
2018-10-09T12:51:09.175Z,21.50
2018-10-09T12:53:37.452Z,21.50
2018-10-09T12:56:05.793Z,21.50
2018-10-09T12:58:34.160Z,21.50
2018-10-09T13:01:02.438Z,21.50
2018-10-09T13:03:30.690Z,21.40
2018-10-09T13:05:59.001Z,21.50
2018-10-09T13:08:27.286Z,21.50
2018-10-09T13:10:55.576Z,21.50
2018-10-09T13:13:24.854Z,21.40
2018-10-09T13:15:53.145Z,21.50
2018-10-09T13:18:21.433Z,21.40
2018-10-09T13:20:49.782Z,21.50
2018-10-09T13:23:18.057Z,21.40
2018-10-09T13:25:46.361Z,21.40
2018-10-09T13:28:14.663Z,21.50
2018-10-09T13:30:43.036Z,21.50
2018-10-09T13:33:11.316Z,21.50
2018-10-09T13:35:39.591Z,21.50
2018-10-09T13:38:07.970Z,21.60
2018-10-09T13:40:36.201Z,21.60
2018-10-09T13:43:04.549Z,21.60
2018-10-09T13:45:32.862Z,21.60
2018-10-09T13:48:01.117Z,21.60
2018-10-09T13:50:29.491Z,21.50
2018-10-09T13:52:57.690Z,21.50
2018-10-09T13:55:26.094Z,21.60
2018-10-09T13:57:54.666Z,21.80
2018-10-09T14:00:23.083Z,22.10
2018-10-09T14:02:52.373Z,21.90
2018-10-09T14:05:20.956Z,21.70
2018-10-09T14:07:49.231Z,21.70
2018-10-09T14:10:17.897Z,21.70
2018-10-09T14:12:46.172Z,21.60
2018-10-09T14:15:14.695Z,21.90
2018-10-09T14:17:43.155Z,22.50
2018-10-09T14:20:11.659Z,23.10
2018-10-09T14:22:40.264Z,23.50
2018-10-09T14:25:08.768Z,23.80
2018-10-09T14:27:37.205Z,24.10
2018-10-09T14:30:05.984Z,24.40
2018-10-09T14:32:34.341Z,24.60
2018-10-09T14:35:02.955Z,24.70
2018-10-09T14:37:31.340Z,24.70
2018-10-09T14:39:59.869Z,24.90
2018-10-09T14:42:28.229Z,24.90
2018-10-09T14:44:56.667Z,25.00
2018-10-09T14:47:25.090Z,25.10
2018-10-09T14:49:53.544Z,24.90
2018-10-09T14:52:22.449Z,25.00
2018-10-09T14:54:50.885Z,25.10
2018-10-09T14:57:19.215Z,25.20
2018-10-09T14:59:48.325Z,25.20
2018-10-09T15:02:16.711Z,25.20
2018-10-09T15:04:44.988Z,25.20
2018-10-09T15:07:13.697Z,25.30
2018-10-09T15:09:42.025Z,25.30
2018-10-09T15:12:10.292Z,25.20
2018-10-09T15:14:38.562Z,25.20
2018-10-09T15:17:06.968Z,25.20
2018-10-09T15:19:35.188Z,25.10
2018-10-09T15:22:03.593Z,25.10
2018-10-09T15:24:31.880Z,25.20
2018-10-09T15:27:00.160Z,25.20
2018-10-09T15:29:28.430Z,25.10
2018-10-09T15:31:56.887Z,25.00
2018-10-09T15:34:25.188Z,25.10
2018-10-09T15:36:53.508Z,25.00
2018-10-09T15:39:22.142Z,25.00
2018-10-09T15:41:50.607Z,25.00
2018-10-09T15:44:19.105Z,24.90
2018-10-09T15:46:48.526Z,24.90
2018-10-09T15:49:17.005Z,24.90
2018-10-09T15:51:46.199Z,24.90
2018-10-09T15:54:14.511Z,24.80
2018-10-09T15:56:42.885Z,24.80
2018-10-09T15:59:11.138Z,24.70
2018-10-09T16:01:39.486Z,24.70
2018-10-09T16:04:08.088Z,24.10
2018-10-09T16:06:36.673Z,23.60
2018-10-09T16:09:07.597Z,23.40
2018-10-09T16:11:35.890Z,23.20
2018-10-09T16:14:04.182Z,23.10
2018-10-09T16:16:32.474Z,23.00
2018-10-09T16:19:00.746Z,22.80
2018-10-09T16:21:29.058Z,22.80
2018-10-09T16:23:57.323Z,22.70
2018-10-09T16:26:25.613Z,22.60
2018-10-09T16:28:53.887Z,22.50
2018-10-09T16:31:22.163Z,22.40
2018-10-09T16:33:50.461Z,22.40
2018-10-09T16:36:18.737Z,22.30
2018-10-09T16:38:47.001Z,22.20
2018-10-09T16:41:15.360Z,22.20
2018-10-09T16:43:43.643Z,22.10
2018-10-09T16:46:11.921Z,22.00
2018-10-09T16:48:40.217Z,21.90
2018-10-09T16:51:08.481Z,21.90
2018-10-09T16:53:37.914Z,21.80
2018-10-09T16:56:06.223Z,21.70
2018-10-09T16:58:34.727Z,21.70
2018-10-09T17:01:03.195Z,21.60
2018-10-09T17:03:31.686Z,21.50
2018-10-09T17:06:00.080Z,21.40
2018-10-09T17:08:28.469Z,21.30
2018-10-09T17:10:57.045Z,21.30
2018-10-09T17:13:25.519Z,21.20
2018-10-09T17:15:53.826Z,21.10
2018-10-09T17:18:22.092Z,21.10
2018-10-09T17:20:50.574Z,20.90
2018-10-09T17:23:18.999Z,20.90
2018-10-09T17:25:47.474Z,20.90
2018-10-09T17:28:15.879Z,20.80
2018-10-09T17:30:44.913Z,20.80
2018-10-09T17:33:13.382Z,20.70
2018-10-09T17:35:41.874Z,20.70
2018-10-09T17:38:10.425Z,20.60
2018-10-09T17:40:38.754Z,20.60
2018-10-09T17:43:07.066Z,20.60
2018-10-09T17:45:35.338Z,20.50
2018-10-09T17:48:03.649Z,20.50
2018-10-09T17:50:31.913Z,20.50
2018-10-09T17:53:00.186Z,20.50
2018-10-09T17:55:28.549Z,20.40
2018-10-09T17:57:56.813Z,20.90
2018-10-09T18:00:25.090Z,21.40
2018-10-09T18:02:53.373Z,21.90
2018-10-09T18:05:21.665Z,22.20
2018-10-09T18:07:49.959Z,22.60
2018-10-09T18:10:18.248Z,22.90
2018-10-09T18:12:46.580Z,23.20
2018-10-09T18:15:15.590Z,23.40
2018-10-09T18:17:44.456Z,23.60
2018-10-09T18:20:12.755Z,23.60
2018-10-09T18:22:41.078Z,23.70
2018-10-09T18:25:09.807Z,23.70
2018-10-09T18:27:38.108Z,23.50
2018-10-09T18:30:07.192Z,23.40
2018-10-09T18:32:35.571Z,23.40
2018-10-09T18:35:03.745Z,23.50
2018-10-09T18:37:32.037Z,23.60
2018-10-09T18:40:00.318Z,23.70
2018-10-09T18:42:28.602Z,23.60
2018-10-09T18:44:56.854Z,23.60
2018-10-09T18:47:30.633Z,23.50
2018-10-09T18:49:59.061Z,23.50
2018-10-09T18:52:27.354Z,23.50
2018-10-09T18:54:56.050Z,23.40
2018-10-09T18:57:24.365Z,23.40
2018-10-09T18:59:52.639Z,23.40
2018-10-09T19:02:20.910Z,23.40
2018-10-09T19:04:49.417Z,23.30
2018-10-09T19:07:17.682Z,23.30
2018-10-09T19:09:45.949Z,23.30
2018-10-09T19:12:14.222Z,23.30
2018-10-09T19:14:42.467Z,23.20
2018-10-09T19:17:10.746Z,23.20
2018-10-09T19:19:39.054Z,23.10
2018-10-09T19:22:07.465Z,23.10
2018-10-09T19:24:35.702Z,23.10
2018-10-09T19:27:04.039Z,23.00
2018-10-09T19:29:32.340Z,23.00
2018-10-09T19:32:00.617Z,23.00
2018-10-09T19:34:28.908Z,23.00
2018-10-09T19:36:57.187Z,22.90
2018-10-09T19:39:25.518Z,22.90
2018-10-09T19:41:53.785Z,22.80
2018-10-09T19:44:22.062Z,22.80
2018-10-09T19:46:50.329Z,22.80
2018-10-09T19:49:18.577Z,22.80
2018-10-09T19:51:46.879Z,22.80
2018-10-09T19:54:15.170Z,22.70
2018-10-09T19:56:43.479Z,22.70
2018-10-09T19:59:11.772Z,22.60
2018-10-09T20:01:40.066Z,22.60
2018-10-09T20:04:08.341Z,22.60
2018-10-09T20:06:36.630Z,22.60
2018-10-09T20:09:09.277Z,22.60
2018-10-09T20:11:37.539Z,22.50
2018-10-09T20:14:05.830Z,22.50
2018-10-09T20:16:34.155Z,22.50
2018-10-09T20:19:02.426Z,22.40
2018-10-09T20:21:30.690Z,22.40
2018-10-09T20:23:58.985Z,22.40
2018-10-09T20:26:27.258Z,22.30
2018-10-09T20:28:55.557Z,22.30
2018-10-09T20:31:23.953Z,22.30
2018-10-09T20:33:52.412Z,22.20
2018-10-09T20:36:20.784Z,22.20
2018-10-09T20:38:49.089Z,22.20
2018-10-09T20:41:17.346Z,22.10
2018-10-09T20:43:45.620Z,22.10
2018-10-09T20:46:13.966Z,22.10
2018-10-09T20:48:42.248Z,22.10
2018-10-09T20:51:10.501Z,22.00
2018-10-09T20:53:38.770Z,22.00
2018-10-09T20:56:07.074Z,22.00
2018-10-09T20:58:35.527Z,21.90
2018-10-09T21:01:03.854Z,21.90
2018-10-09T21:03:32.773Z,21.90
2018-10-09T21:06:01.985Z,21.80
2018-10-09T21:08:30.206Z,21.80
2018-10-09T21:10:58.870Z,21.80
2018-10-09T21:13:27.320Z,21.70
2018-10-09T21:15:55.692Z,21.70
2018-10-09T21:18:24.178Z,21.70
2018-10-09T21:20:52.704Z,21.60
2018-10-09T21:23:21.101Z,21.60
2018-10-09T21:25:49.577Z,21.60
2018-10-09T21:28:18.208Z,21.50
2018-10-09T21:30:46.495Z,21.50
2018-10-09T21:33:14.980Z,21.40
2018-10-09T21:35:43.443Z,21.40
2018-10-09T21:38:11.899Z,21.40
2018-10-09T21:40:40.257Z,21.30
2018-10-09T21:43:08.711Z,21.30
2018-10-09T21:45:37.172Z,21.30
2018-10-09T21:48:05.665Z,21.30
2018-10-09T21:50:34.054Z,21.20
2018-10-09T21:53:02.423Z,21.20
2018-10-09T21:55:30.879Z,21.20
2018-10-09T21:57:59.476Z,21.10
2018-10-09T22:00:27.878Z,21.10
2018-10-09T22:02:56.284Z,21.10
2018-10-09T22:05:24.678Z,21.00
2018-10-09T22:07:53.059Z,21.00
2018-10-09T22:10:22.560Z,21.00
2018-10-09T22:12:51.525Z,21.00
2018-10-09T22:15:20.039Z,20.90
2018-10-09T22:17:48.427Z,20.90
2018-10-09T22:20:16.874Z,20.90
2018-10-09T22:22:45.140Z,20.90
2018-10-09T22:25:13.457Z,20.80
2018-10-09T22:27:41.870Z,20.80
2018-10-09T22:30:10.213Z,20.80
2018-10-09T22:32:38.538Z,20.80
2018-10-09T22:35:06.790Z,20.70
2018-10-09T22:37:35.871Z,20.70
2018-10-09T22:40:04.155Z,20.70
2018-10-09T22:42:32.425Z,20.60
2018-10-09T22:45:00.710Z,20.60
2018-10-09T22:47:29.427Z,20.60
2018-10-09T22:49:57.717Z,20.50
2018-10-09T22:52:25.966Z,20.50
2018-10-09T22:54:54.277Z,20.50
2018-10-09T22:57:22.561Z,20.50
2018-10-09T22:59:50.882Z,20.40
2018-10-09T23:02:19.139Z,20.40
2018-10-09T23:04:47.439Z,20.40
2018-10-09T23:07:15.718Z,20.30
2018-10-09T23:09:43.963Z,20.30
2018-10-09T23:12:12.274Z,20.20
2018-10-09T23:14:40.577Z,20.20
2018-10-09T23:17:08.850Z,20.20
2018-10-09T23:19:37.095Z,20.20
2018-10-09T23:22:05.362Z,20.20
2018-10-09T23:24:33.639Z,20.10
2018-10-09T23:27:01.929Z,20.10
2018-10-09T23:29:30.204Z,20.00
2018-10-09T23:31:58.468Z,20.00
2018-10-09T23:34:26.703Z,20.00
2018-10-09T23:36:54.986Z,19.90
2018-10-09T23:39:23.236Z,19.90
2018-10-09T23:41:51.538Z,19.90
2018-10-09T23:44:19.807Z,19.90
2018-10-09T23:46:48.146Z,19.80
2018-10-09T23:49:16.419Z,19.80
2018-10-09T23:51:44.696Z,19.80
2018-10-09T23:54:12.915Z,19.70
2018-10-09T23:56:41.192Z,19.70
2018-10-09T23:59:09.469Z,19.70
